Time;durP1;ratioP1;P1;durP2;ratioP2;P2;SDS_P1;SDS_P2;PMS_P1;PMS_P2;Temp;Humidity;BMP_temperature;BMP_pressure;BME280_temperature;BME280_humidity;BME280_pressure;Samples;Min_cycle;Max_cycle;Signal;HPM_P1;HPM_P2
2022/10/14 00:00:36;;;;;;;16.15;11.40;;;;;;;9.49;99.39;101476.59;5044433;28;20519;-81
2022/10/14 00:03:02;;;;;;;16.30;9.77;;;;;;;9.45;99.40;101466.53;5025460;28;20029;-81
2022/10/14 00:05:27;;;;;;;16.17;10.20;;;;;;;9.52;99.94;101476.41;5025393;28;20029;-80
2022/10/14 00:07:53;;;;;;;17.42;11.50;;;;;;;9.51;99.27;101461.78;5044407;28;20061;-80
2022/10/14 00:10:18;;;;;;;17.15;12.88;;;;;;;9.57;99.42;101474.31;5041105;28;20025;-80
2022/10/14 00:12:44;;;;;;;16.65;9.98;;;;;;;9.58;99.52;101476.00;5044471;28;20437;-80
2022/10/14 00:15:10;;;;;;;19.10;12.48;;;;;;;9.56;99.73;101483.03;5044533;28;20048;-81
2022/10/14 00:17:35;;;;;;;19.13;13.55;;;;;;;9.54;99.73;101479.72;5026323;28;20139;-80
2022/10/14 00:20:01;;;;;;;29.05;12.02;;;;;;;9.50;99.49;101467.91;5044418;28;20465;-80
2022/10/14 00:22:27;;;;;;;22.73;11.85;;;;;;;9.58;99.85;101476.00;5044646;28;20116;-80
2022/10/14 00:24:52;;;;;;;24.30;13.60;;;;;;;9.62;100.00;101480.97;5043775;28;20059;-80
2022/10/14 00:27:17;;;;;;;22.40;13.20;;;;;;;9.65;99.84;101480.78;5044151;28;20036;-81
2022/10/14 00:29:43;;;;;;;20.80;11.30;;;;;;;9.65;100.00;101478.19;5026231;28;20518;-81
2022/10/14 00:32:08;;;;;;;28.83;17.20;;;;;;;9.62;99.82;101478.38;5044552;28;20039;-81
2022/10/14 00:34:34;;;;;;;22.10;11.75;;;;;;;9.74;100.00;101474.94;5026033;28;20017;-80
2022/10/14 00:37:00;;;;;;;23.63;12.95;;;;;;;9.69;99.60;101466.66;5044414;28;20036;-80
2022/10/14 00:39:25;;;;;;;33.83;19.42;;;;;;;9.68;100.00;101470.19;5043381;28;20047;-80
2022/10/14 00:41:50;;;;;;;27.50;14.82;;;;;;;9.65;100.00;101465.22;5025976;28;20730;-81
2022/10/14 00:44:16;;;;;;;25.10;14.30;;;;;;;9.70;100.00;101463.97;5025638;28;20036;-80
2022/10/14 00:46:46;;;;;;;25.45;13.98;;;;;;;9.71;100.00;101464.81;5050319;28;20126;-80
2022/10/14 00:49:17;;;;;;;27.80;15.10;;;;;;;9.69;100.00;101458.88;5043398;28;20394;-80
2022/10/14 00:51:59;;;;;;;25.13;14.65;;;;;;;9.73;100.00;101455.16;5050899;28;20033;-80
2022/10/14 00:54:30;;;;;;;29.30;15.45;;;;;;;9.71;100.00;101452.69;5032476;28;20271;-82
2022/10/14 00:56:56;;;;;;;28.65;14.60;;;;;;;9.72;100.00;101445.75;5049709;28;20087;-80
2022/10/14 00:59:21;;;;;;;27.30;15.65;;;;;;;9.70;100.00;101443.25;5049263;28;20495;-80
2022/10/14 01:01:47;;;;;;;30.13;18.38;;;;;;;9.69;100.00;101438.16;5050770;28;20411;-80
2022/10/14 01:04:12;;;;;;;27.02;14.55;;;;;;;9.69;100.00;101422.63;5050108;28;20059;-80
2022/10/14 01:07:03;;;;;;;29.17;15.57;;;;;;;9.81;100.00;101440.78;5052946;28;20036;-80
2022/10/14 01:09:42;;;;;;;29.33;17.65;;;;;;;9.79;100.00;101428.84;5048717;28;20036;-81
2022/10/14 01:12:46;;;;;;;35.65;20.02;;;;;;;9.83;100.00;101432.88;5047198;28;20044;-80
2022/10/14 01:15:23;;;;;;;32.95;19.23;;;;;;;9.76;100.00;101418.69;5001292;28;20125;-81
2022/10/14 01:17:55;;;;;;;34.33;19.23;;;;;;;9.85;100.00;101425.81;5052569;28;20052;-82
2022/10/14 01:20:24;;;;;;;28.70;14.75;;;;;;;9.89;100.00;101422.09;5051918;28;20032;-81
2022/10/14 01:22:55;;;;;;;33.20;19.08;;;;;;;9.90;100.00;101415.97;5057100;28;20028;-82
2022/10/14 01:25:53;;;;;;;34.53;22.23;;;;;;;9.91;100.00;101407.25;5040980;28;20480;-81
2022/10/14 01:29:04;;;;;;;36.97;19.60;;;;;;;9.98;100.00;101395.56;5049581;28;20048;-83
2022/10/14 01:31:35;;;;;;;33.15;17.35;;;;;;;9.94;100.00;101368.19;4985738;28;20054;-82
2022/10/14 01:34:07;;;;;;;35.42;20.65;;;;;;;10.00;100.00;101378.13;4984468;28;20042;-81
2022/10/14 01:36:45;;;;;;;37.85;20.52;;;;;;;10.01;100.00;101364.22;4987364;28;20596;-81
2022/10/14 01:39:22;;;;;;;37.75;23.85;;;;;;;10.07;100.00;101371.56;4971635;28;20110;-82
2022/10/14 01:41:54;;;;;;;40.75;22.60;;;;;;;10.08;100.00;101370.63;4980320;28;20061;-81
2022/10/14 01:44:22;;;;;;;46.33;27.98;;;;;;;10.08;100.00;101364.63;4987759;28;20038;-82
2022/10/14 01:46:52;;;;;;;43.10;24.48;;;;;;;10.13;100.00;101366.88;4988196;28;20042;-81
2022/10/14 01:49:26;;;;;;;38.85;21.73;;;;;;;10.15;100.00;101365.00;4987518;28;20046;-81
2022/10/14 01:51:56;;;;;;;48.70;26.98;;;;;;;10.21;100.00;101369.78;4986215;28;20065;-81
2022/10/14 01:54:37;;;;;;;49.08;29.70;;;;;;;10.18;100.00;101364.81;4974899;28;20034;-81
2022/10/14 01:57:10;;;;;;;43.22;23.35;;;;;;;10.27;100.00;101379.75;4975082;28;20126;-82
2022/10/14 01:59:37;;;;;;;44.30;24.48;;;;;;;10.21;100.00;101362.84;4984942;28;20042;-82
2022/10/14 02:02:03;;;;;;;49.05;26.77;;;;;;;10.30;100.00;101382.09;4984762;28;20042;-82
2022/10/14 02:04:28;;;;;;;43.90;26.92;;;;;;;10.33;100.00;101379.31;4981101;28;20568;-81
2022/10/14 02:06:59;;;;;;;41.75;28.45;;;;;;;10.39;100.00;101384.03;4973766;28;20227;-82
2022/10/14 02:09:34;;;;;;;46.40;30.95;;;;;;;10.42;100.00;101378.63;5042667;28;20037;-81
2022/10/14 02:12:19;;;;;;;48.90;33.60;;;;;;;10.41;100.00;101369.19;5046832;28;20035;-81
2022/10/14 02:15:05;;;;;;;50.05;35.85;;;;;;;10.46;100.00;101374.06;5046830;28;20112;-81
2022/10/14 02:17:33;;;;;;;50.03;32.13;;;;;;;10.48;100.00;101366.97;5046288;28;20374;-82
2022/10/14 02:20:04;;;;;;;48.80;27.73;;;;;;;10.53;100.00;101370.91;5046143;28;20461;-82
2022/10/14 02:22:36;;;;;;;54.75;36.83;;;;;;;10.53;100.00;101360.53;5047265;28;20108;-82
2022/10/14 02:25:12;;;;;;;48.38;33.45;;;;;;;10.54;100.00;101367.34;5028396;28;20087;-82
2022/10/14 02:27:38;;;;;;;44.55;25.27;;;;;;;10.58;100.00;101366.22;5046974;28;20479;-81
2022/10/14 02:30:06;;;;;;;50.25;32.25;;;;;;;10.56;100.00;101355.13;5046415;28;20032;-82
2022/10/14 02:32:32;;;;;;;45.87;27.30;;;;;;;10.61;100.00;101355.63;5045711;28;20032;-82
2022/10/14 02:34:59;;;;;;;45.17;29.40;;;;;;;10.62;100.00;101359.88;5045807;28;20044;-82
2022/10/14 02:37:26;;;;;;;47.90;32.50;;;;;;;10.58;100.00;101347.22;5028256;28;20606;-81
2022/10/14 02:40:01;;;;;;;53.35;34.15;;;;;;;10.63;100.00;101356.31;5046720;28;20064;-81
2022/10/14 02:42:27;;;;;;;43.75;30.95;;;;;;;10.59;100.00;101354.06;5027670;28;20075;-82
2022/10/14 02:44:55;;;;;;;43.75;30.20;;;;;;;10.59;100.00;101351.47;5046197;28;20064;-82
2022/10/14 02:47:21;;;;;;;48.65;33.15;;;;;;;10.63;100.00;101358.09;5027932;28;20075;-81
2022/10/14 02:49:47;;;;;;;51.67;39.33;;;;;;;10.68;100.00;101362.94;5046324;28;20040;-82
2022/10/14 02:52:12;;;;;;;42.95;29.10;;;;;;;10.73;100.00;101363.44;5046576;28;20020;-83
2022/10/14 02:54:37;;;;;;;43.20;28.70;;;;;;;10.73;100.00;101353.06;5046303;28;20103;-81
2022/10/14 02:57:03;;;;;;;40.50;25.13;;;;;;;10.74;100.00;101352.94;5045634;28;20108;-82
2022/10/14 02:59:28;;;;;;;46.30;30.58;;;;;;;10.70;100.00;101335.13;5046120;28;20822;-82
2022/10/14 03:01:53;;;;;;;44.30;34.00;;;;;;;10.69;100.00;101333.47;5037379;28;20174;-83
2022/10/14 03:04:19;;;;;;;39.22;29.02;;;;;;;10.75;100.00;101338.19;5052121;28;20457;-82
2022/10/14 03:06:44;;;;;;;45.55;30.77;;;;;;;10.82;100.00;101339.41;5045534;28;20017;-82
2022/10/14 03:09:09;;;;;;;47.25;34.67;;;;;;;10.82;100.00;101336.81;5044910;28;20028;-82
2022/10/14 03:11:34;;;;;;;51.15;38.58;;;;;;;10.78;100.00;101327.56;5027588;28;20024;-82
2022/10/14 03:14:00;;;;;;;43.25;29.23;;;;;;;10.83;100.00;101317.69;5046842;28;20025;-82
2022/10/14 03:16:25;;;;;;;43.28;25.77;;;;;;;10.90;100.00;101329.28;5026967;28;20496;-82
2022/10/14 03:18:50;;;;;;;39.85;27.55;;;;;;;10.84;100.00;101316.78;5045523;28;20552;-82
2022/10/14 03:21:16;;;;;;;39.70;25.27;;;;;;;10.86;100.00;101304.50;5047861;28;20036;-82
2022/10/14 03:23:41;;;;;;;51.83;35.95;;;;;;;10.90;100.00;101311.13;5046174;28;20029;-82
2022/10/14 03:26:07;;;;;;;43.15;31.20;;;;;;;10.96;100.00;101315.03;5045156;28;20045;-82
2022/10/14 03:28:32;;;;;;;42.40;24.98;;;;;;;10.91;100.00;101302.38;5027394;28;20028;-82
2022/10/14 03:30:57;;;;;;;50.60;36.75;;;;;;;10.95;100.00;101314.16;5045640;28;20540;-82
2022/10/14 03:33:23;;;;;;;48.55;34.10;;;;;;;10.98;100.00;101316.53;5027118;28;20028;-81
2022/10/14 03:35:48;;;;;;;47.72;31.20;;;;;;;10.96;100.00;101305.47;5045352;28;20033;-82
2022/10/14 03:38:14;;;;;;;43.20;27.27;;;;;;;11.04;100.00;101313.50;5045679;28;20082;-82
2022/10/14 03:40:39;;;;;;;41.90;25.88;;;;;;;10.82;100.00;101272.75;5026618;28;20032;-81
2022/10/14 03:43:04;;;;;;;44.75;34.47;;;;;;;11.06;100.00;101311.59;5045880;28;20781;-82
2022/10/14 03:45:30;;;;;;;44.03;32.17;;;;;;;11.08;100.00;101309.72;5026899;28;20029;-81
2022/10/14 03:47:55;;;;;;;42.67;31.60;;;;;;;11.03;100.00;101285.88;5044821;28;20075;-81
2022/10/14 03:50:21;;;;;;;45.13;31.30;;;;;;;11.08;100.00;101291.56;5043509;28;20459;-81
2022/10/14 03:52:46;;;;;;;45.35;31.83;;;;;;;11.11;100.00;101293.06;5053559;28;20083;-81
2022/10/14 03:55:12;;;;;;;44.22;37.72;;;;;;;11.06;100.00;101285.63;5044333;28;20029;-81
2022/10/14 03:57:37;;;;;;;47.33;39.80;;;;;;;11.10;100.00;101292.25;5045198;28;20060;-81
2022/10/14 04:00:04;;;;;;;42.75;29.08;;;;;;;11.19;100.00;101300.31;5044951;28;20048;-81
2022/10/14 04:02:30;;;;;;;43.65;33.53;;;;;;;11.18;100.00;101286.47;5025270;28;20119;-82
2022/10/14 04:04:55;;;;;;;43.50;34.20;;;;;;;11.18;100.00;101283.88;5043970;28;20023;-81
2022/10/14 04:07:20;;;;;;;44.85;38.40;;;;;;;11.17;100.00;101283.03;5044025;28;20461;-82
2022/10/14 04:09:46;;;;;;;39.72;29.80;;;;;;;11.20;100.00;101270.78;5043989;28;20033;-82
2022/10/14 04:12:12;;;;;;;39.35;30.67;;;;;;;11.24;100.00;101274.78;5043568;28;20453;-82
2022/10/14 04:14:37;;;;;;;44.58;38.67;;;;;;;11.24;100.00;101277.38;5026044;28;20384;-81
2022/10/14 04:17:02;;;;;;;38.35;29.20;;;;;;;11.25;100.00;101273.88;5044822;28;20052;-82
2022/10/14 04:19:28;;;;;;;41.00;33.15;;;;;;;11.25;100.00;101263.47;5035662;28;20408;-81
2022/10/14 04:21:54;;;;;;;43.95;37.55;;;;;;;11.21;100.00;101262.06;5044622;28;20032;-82
2022/10/14 04:24:19;;;;;;;35.85;28.02;;;;;;;11.27;100.00;101266.78;5043926;28;20352;-78
2022/10/14 04:26:45;;;;;;;34.25;24.13;;;;;;;11.26;100.00;101254.75;5044151;28;20113;-81
2022/10/14 04:29:10;;;;;;;33.95;26.50;;;;;;;11.27;100.00;101256.38;5043948;28;20036;-81
2022/10/14 04:31:35;;;;;;;39.15;33.63;;;;;;;11.28;100.00;101253.66;5025873;28;20328;-81
2022/10/14 04:34:01;;;;;;;35.25;25.55;;;;;;;11.33;100.00;101261.09;5044456;28;20032;-81
2022/10/14 04:36:26;;;;;;;35.25;28.88;;;;;;;11.29;100.00;101244.09;5043782;28;20025;-81
2022/10/14 04:38:51;;;;;;;33.00;22.90;;;;;;;11.36;100.00;101250.50;5044303;28;20472;-80
2022/10/14 04:41:17;;;;;;;31.02;21.60;;;;;;;11.38;100.00;101244.22;5044242;28;20382;-81
2022/10/14 04:43:42;;;;;;;37.83;33.35;;;;;;;11.31;100.00;101247.41;5044213;28;20484;-80
2022/10/14 04:46:07;;;;;;;37.20;32.47;;;;;;;11.37;100.00;101257.31;5026568;28;20040;-80
2022/10/14 04:48:33;;;;;;;34.15;25.38;;;;;;;11.37;100.00;101241.75;5043985;28;20502;-81
2022/10/14 04:50:58;;;;;;;31.77;25.35;;;;;;;11.39;100.00;101247.63;5044502;28;20025;-81
2022/10/14 04:53:23;;;;;;;29.17;21.60;;;;;;;11.42;100.00;101244.81;5043224;28;20036;-81
2022/10/14 04:55:50;;;;;;;37.63;32.88;;;;;;;11.38;100.00;101243.38;5044316;28;20432;-80
2022/10/14 04:58:16;;;;;;;33.63;27.33;;;;;;;11.42;100.00;101245.63;5043663;28;20071;-81
2022/10/14 05:00:41;;;;;;;39.65;33.60;;;;;;;11.35;100.00;101228.03;5044382;28;20021;-82
2022/10/14 05:03:07;;;;;;;31.45;24.77;;;;;;;11.38;100.00;101231.22;5025157;28;20043;-81
2022/10/14 05:05:32;;;;;;;34.75;30.95;;;;;;;11.42;100.00;101239.63;5043850;28;20562;-81
2022/10/14 05:07:58;;;;;;;30.58;25.58;;;;;;;11.42;100.00;101231.81;5043719;28;20029;-80
2022/10/14 05:10:23;;;;;;;34.53;30.88;;;;;;;11.38;100.00;101222.63;5044151;28;20025;-80
2022/10/14 05:12:49;;;;;;;33.45;27.63;;;;;;;11.44;100.00;101228.16;5044875;28;20044;-81
2022/10/14 05:15:15;;;;;;;29.48;24.33;;;;;;;11.47;100.00;101223.66;5043707;28;20475;-81
2022/10/14 05:17:43;;;;;;;32.50;27.60;;;;;;;11.47;100.00;101224.50;5043254;28;20057;-80
2022/10/14 05:20:09;;;;;;;27.13;21.05;;;;;;;11.50;100.00;101211.25;5043768;28;20036;-81
2022/10/14 05:22:35;;;;;;;30.17;26.50;;;;;;;11.49;100.00;101213.97;5025940;28;20060;-81
2022/10/14 05:25:00;;;;;;;31.60;27.45;;;;;;;11.47;100.00;101208.91;5042949;28;20380;-80
2022/10/14 05:27:25;;;;;;;26.95;23.10;;;;;;;11.47;100.00;101201.13;5043310;28;20139;-80
2022/10/14 05:29:51;;;;;;;25.17;20.35;;;;;;;11.47;100.00;101195.94;5042853;28;20056;-81
2022/10/14 05:32:16;;;;;;;23.67;18.63;;;;;;;11.50;100.00;101190.47;5043801;28;20112;-80
2022/10/14 05:34:41;;;;;;;31.55;27.75;;;;;;;11.47;100.00;101190.72;5047644;28;20063;-81
2022/10/14 05:37:07;;;;;;;34.78;31.27;;;;;;;11.46;100.00;101181.25;5048131;28;20079;-81
2022/10/14 05:39:32;;;;;;;30.75;25.80;;;;;;;11.52;100.00;101187.75;5046370;28;20017;-80
2022/10/14 05:41:57;;;;;;;30.98;27.70;;;;;;;11.51;100.00;101179.13;5047575;28;20412;-80
2022/10/14 05:44:23;;;;;;;29.25;25.83;;;;;;;11.48;100.00;101166.41;5045985;28;20029;-81
2022/10/14 05:46:48;;;;;;;31.83;28.52;;;;;;;11.48;100.00;101160.38;5047247;28;20468;-81
2022/10/14 05:49:13;;;;;;;31.98;28.45;;;;;;;11.47;100.00;101169.94;5047251;28;20410;-80
2022/10/14 05:51:39;;;;;;;24.45;18.77;;;;;;;11.51;100.00;101163.53;5044700;28;20031;-81
2022/10/14 05:54:05;;;;;;;27.02;22.92;;;;;;;11.54;100.00;101171.09;5046695;28;20371;-81
2022/10/14 05:56:30;;;;;;;24.98;19.20;;;;;;;11.60;100.00;101168.00;5028817;28;20040;-80
2022/10/14 05:58:55;;;;;;;23.85;18.67;;;;;;;11.58;100.00;101163.88;5046618;28;20385;-81
2022/10/14 06:01:21;;;;;;;28.27;25.27;;;;;;;11.56;100.00;101164.00;5047312;28;20029;-81
2022/10/14 06:03:50;;;;;;;24.35;18.90;;;;;;;11.64;100.00;101171.16;5046096;28;20033;-80
2022/10/14 06:06:16;;;;;;;23.10;19.02;;;;;;;11.65;100.00;101163.28;5046298;28;20075;-81
2022/10/14 06:08:41;;;;;;;26.00;23.00;;;;;;;11.64;100.00;101150.38;5028038;28;20028;-81
2022/10/14 06:11:07;;;;;;;26.48;23.63;;;;;;;11.62;100.00;101153.13;5046970;28;20021;-80
2022/10/14 06:13:33;;;;;;;25.50;22.83;;;;;;;11.67;100.00;101158.75;5044886;28;20028;-80
2022/10/14 06:16:07;;;;;;;30.50;27.33;;;;;;;11.65;100.00;101150.28;5046535;28;20051;-81
2022/10/14 06:18:33;;;;;;;25.10;22.25;;;;;;;11.69;100.00;101154.25;5044068;28;20028;-81
2022/10/14 06:20:59;;;;;;;22.52;17.50;;;;;;;11.65;100.00;101139.88;5045834;28;20029;-81
2022/10/14 06:23:24;;;;;;;22.17;18.17;;;;;;;11.74;100.00;101155.66;5045702;28;20073;-81
2022/10/14 06:25:49;;;;;;;24.13;21.63;;;;;;;11.75;100.00;101152.13;5046302;28;20116;-81
2022/10/14 06:28:15;;;;;;;21.65;17.50;;;;;;;11.75;100.00;101157.31;5027577;28;20041;-81
2022/10/14 06:30:40;;;;;;;21.60;17.48;;;;;;;11.78;100.00;101162.28;5046496;28;20029;-81
2022/10/14 06:33:05;;;;;;;24.25;21.80;;;;;;;11.78;100.00;101154.47;5047023;28;20095;-82
2022/10/14 06:35:31;;;;;;;28.08;25.17;;;;;;;11.74;100.00;101146.09;5045684;28;20032;-81
2022/10/14 06:37:57;;;;;;;22.20;18.55;;;;;;;11.83;100.00;101145.41;5027913;28;20071;-81
2022/10/14 06:40:23;;;;;;;21.30;18.75;;;;;;;11.85;100.00;101147.84;5044836;28;20355;-82
2022/10/14 06:42:48;;;;;;;23.73;19.55;;;;;;;11.80;100.00;101142.19;5026598;28;20029;-81
2022/10/14 06:45:13;;;;;;;24.00;20.48;;;;;;;11.88;100.00;101147.63;5045485;28;20021;-81
2022/10/14 06:47:39;;;;;;;27.90;25.10;;;;;;;11.85;100.00;101137.47;5025354;28;20025;-81
2022/10/14 06:50:04;;;;;;;21.85;18.00;;;;;;;11.89;100.00;101138.88;5046227;28;20495;-82
2022/10/14 06:52:30;;;;;;;25.13;22.60;;;;;;;11.89;100.00;101138.88;5045941;28;20460;-82
2022/10/14 06:54:55;;;;;;;26.30;23.67;;;;;;;11.93;100.00;101140.28;5027659;28;20036;-82
2022/10/14 06:57:20;;;;;;;24.90;22.42;;;;;;;11.91;100.00;101137.78;5045467;28;20862;-82
2022/10/14 06:59:46;;;;;;;22.83;20.25;;;;;;;11.91;100.00;101132.59;5045417;28;20036;-82
2022/10/14 07:02:11;;;;;;;26.30;23.58;;;;;;;11.87;100.00;101117.34;5045594;28;20049;-82
2022/10/14 07:04:38;;;;;;;18.92;14.32;;;;;;;12.00;100.00;101125.00;5026396;28;20033;-82
2022/10/14 07:07:05;;;;;;;18.75;13.48;;;;;;;12.03;100.00;101129.91;5044567;28;20461;-80
2022/10/14 07:09:30;;;;;;;25.35;22.85;;;;;;;11.94;100.00;101118.53;5045792;28;20028;-81
2022/10/14 07:11:56;;;;;;;17.10;14.60;;;;;;;11.97;100.00;101115.66;5045200;28;20605;-82
2022/10/14 07:14:21;;;;;;;20.20;16.38;;;;;;;12.03;100.00;101130.75;5045072;28;20025;-81
2022/10/14 07:16:46;;;;;;;19.13;16.08;;;;;;;11.98;100.00;101127.69;5045721;28;20481;-82
2022/10/14 07:19:12;;;;;;;24.00;21.65;;;;;;;12.02;100.00;101134.31;5027450;28;20461;-82
2022/10/14 07:21:37;;;;;;;23.92;21.58;;;;;;;12.02;100.00;101130.88;5042367;28;20134;-82
2022/10/14 07:24:02;;;;;;;20.60;18.23;;;;;;;12.06;100.00;101124.47;5043065;28;20040;-82
2022/10/14 07:26:31;;;;;;;20.95;17.27;;;;;;;12.07;100.00;101126.94;5043501;28;20135;-82
2022/10/14 07:28:57;;;;;;;21.27;19.10;;;;;;;12.14;100.00;101127.25;5042740;28;20029;-82
2022/10/14 07:31:23;;;;;;;18.40;14.15;;;;;;;12.15;100.00;101119.31;5044889;28;20491;-82
2022/10/14 07:33:48;;;;;;;20.42;17.77;;;;;;;12.12;100.00;101122.19;5027357;28;20037;-82
2022/10/14 07:36:15;;;;;;;23.27;20.77;;;;;;;12.16;100.00;101136.59;5026940;28;20378;-82
2022/10/14 07:38:41;;;;;;;19.48;17.45;;;;;;;12.17;100.00;101125.25;5045294;28;20044;-82
2022/10/14 07:41:15;;;;;;;18.38;16.45;;;;;;;12.22;100.00;101135.25;5044208;28;20029;-82
2022/10/14 07:43:46;;;;;;;17.05;13.38;;;;;;;12.25;100.00;101136.75;5045121;28;20558;-82
2022/10/14 07:46:12;;;;;;;25.90;20.10;;;;;;;12.23;100.00;101132.53;5044308;28;20107;-82
2022/10/14 07:48:38;;;;;;;19.98;17.92;;;;;;;12.21;100.00;101120.59;5023192;28;20020;-82
2022/10/14 07:51:06;;;;;;;19.55;17.55;;;;;;;12.30;100.00;101132.81;5027181;28;20443;-82
2022/10/14 07:53:31;;;;;;;21.38;19.17;;;;;;;12.31;100.00;101128.44;5044061;28;20108;-82
2022/10/14 07:55:57;;;;;;;17.60;14.77;;;;;;;12.28;100.00;101123.53;5044644;28;20107;-82
2022/10/14 07:58:25;;;;;;;18.30;16.48;;;;;;;12.33;100.00;101121.34;5044678;28;20087;-82
2022/10/14 08:00:52;;;;;;;17.27;13.10;;;;;;;12.37;100.00;101125.31;5044978;28;20203;-82
2022/10/14 08:03:18;;;;;;;20.20;18.20;;;;;;;12.30;100.00;101111.19;5043347;28;20059;-82
2022/10/14 08:05:44;;;;;;;19.80;17.83;;;;;;;12.31;100.00;101112.84;5045269;28;20036;-82
2022/10/14 08:08:10;;;;;;;15.55;13.48;;;;;;;12.39;100.00;101126.03;5044111;28;20036;-82
2022/10/14 08:10:37;;;;;;;17.63;15.75;;;;;;;12.40;100.00;101120.72;5045074;28;20021;-82
2022/10/14 08:13:03;;;;;;;18.95;17.05;;;;;;;12.44;100.00;101132.50;5044013;28;20025;-82
2022/10/14 08:15:37;;;;;;;18.75;16.98;;;;;;;12.49;100.00;101126.88;5044265;28;20650;-83
2022/10/14 08:18:04;;;;;;;17.55;15.75;;;;;;;12.46;100.00;101106.34;5038511;28;20051;-83
2022/10/14 08:20:31;;;;;;;17.55;15.10;;;;;;;12.47;100.00;101113.19;5044183;28;20021;-83
2022/10/14 08:22:56;;;;;;;20.30;18.30;;;;;;;12.47;100.00;101114.03;5025147;28;20033;-82
2022/10/14 08:25:21;;;;;;;17.10;14.45;;;;;;;12.55;100.00;101115.13;5044191;28;20037;-82
2022/10/14 08:27:49;;;;;;;17.65;15.95;;;;;;;12.54;100.00;101109.13;5043711;28;20481;-82
2022/10/14 08:30:14;;;;;;;20.42;18.52;;;;;;;12.54;100.00;101109.13;5023061;28;20140;-82
2022/10/14 08:32:40;;;;;;;17.83;16.05;;;;;;;12.53;100.00;101099.66;5043965;28;20112;-83
2022/10/14 08:35:06;;;;;;;19.25;17.08;;;;;;;12.58;100.00;101094.91;5026698;28;20063;-83
2022/10/14 08:37:31;;;;;;;15.77;13.95;;;;;;;12.56;100.00;101080.34;5025218;28;20170;-82
2022/10/14 08:39:56;;;;;;;18.30;16.38;;;;;;;12.55;100.00;101081.31;5044336;28;20060;-82
2022/10/14 08:43:03;;;;;;;19.23;17.27;;;;;;;12.69;100.00;101104.38;5025050;28;20373;-82
2022/10/14 08:45:34;;;;;;;19.52;17.70;;;;;;;12.67;100.00;101103.69;4944501;28;20474;-83
2022/10/14 08:48:08;;;;;;;20.23;18.10;;;;;;;12.62;100.00;101088.47;4955834;28;20051;-82
2022/10/14 08:51:12;;;;;;;21.27;19.17;;;;;;;12.70;100.00;101099.03;4948684;28;20113;-83
2022/10/14 08:53:45;;;;;;;21.33;19.23;;;;;;;12.68;100.00;101095.75;4920802;29;20032;-83
2022/10/14 08:56:12;;;;;;;21.10;19.02;;;;;;;12.73;100.00;101096.19;4919033;29;20533;-82
2022/10/14 08:58:40;;;;;;;22.13;19.92;;;;;;;12.74;100.00;101095.22;4922519;29;20472;-83
2022/10/14 09:01:23;;;;;;;21.75;19.77;;;;;;;12.79;100.00;101101.78;4922886;29;20047;-83
2022/10/14 09:03:53;;;;;;;20.05;18.02;;;;;;;12.81;100.00;101097.31;4919047;29;20051;-83
2022/10/14 09:06:25;;;;;;;18.20;16.35;;;;;;;12.81;100.00;101094.69;4924352;29;20036;-82
2022/10/14 09:08:54;;;;;;;21.27;19.33;;;;;;;12.87;100.00;101107.19;4926746;29;20048;-83
2022/10/14 09:11:21;;;;;;;21.88;19.83;;;;;;;12.84;100.00;101097.84;4923161;29;20031;-83
2022/10/14 09:13:53;;;;;;;21.67;19.77;;;;;;;12.85;100.00;101090.88;4914039;29;20024;-82
2022/10/14 09:16:20;;;;;;;20.73;18.83;;;;;;;12.94;100.00;101105.69;4910505;29;20098;-82
2022/10/14 09:19:00;;;;;;;20.70;18.83;;;;;;;12.96;100.00;101104.59;4927581;29;20034;-83
2022/10/14 09:21:32;;;;;;;21.85;19.85;;;;;;;13.00;100.00;101094.72;4927658;28;20047;-83
2022/10/14 09:24:13;;;;;;;21.60;19.60;;;;;;;12.95;100.00;101076.09;4947011;29;20110;-82
2022/10/14 09:26:42;;;;;;;22.15;20.10;;;;;;;13.03;100.00;101081.47;4942118;28;20068;-83
2022/10/14 09:29:25;;;;;;;21.67;19.77;;;;;;;13.06;100.00;101078.56;5029056;28;20021;-83
2022/10/14 09:31:52;;;;;;;21.63;19.73;;;;;;;13.03;100.00;101068.44;5025920;28;20369;-83
2022/10/14 09:34:20;;;;;;;21.35;19.55;;;;;;;13.06;100.00;101068.16;5046634;28;20024;-83
2022/10/14 09:36:49;;;;;;;17.17;15.30;;;;;;;13.13;100.00;101074.50;5047292;28;20060;-83
2022/10/14 09:39:14;;;;;;;;;;;;;;;13.20;100.00;101075.59;5049642;28;20348;-83
2022/10/14 09:41:40;;;;;;;21.52;19.55;;;;;;;13.17;100.00;101075.84;5047874;28;19919;-83
2022/10/14 09:44:21;;;;;;;21.00;19.20;;;;;;;13.17;100.00;101073.22;5029350;28;20049;-83
2022/10/14 09:46:58;;;;;;;20.85;19.05;;;;;;;13.21;100.00;101066.84;5047497;28;20091;-83
2022/10/14 09:49:32;;;;;;;18.25;16.50;;;;;;;13.24;100.00;101066.53;5045521;28;20059;-83
2022/10/14 09:52:01;;;;;;;20.60;18.60;;;;;;;13.29;100.00;101063.53;5047045;28;20128;-83
2022/10/14 09:54:29;;;;;;;18.48;16.65;;;;;;;13.33;100.00;101069.31;5046676;28;20131;-83
2022/10/14 09:57:06;;;;;;;;;;;;;;;13.40;100.00;101062.59;5028980;28;20037;-83
2022/10/14 09:59:47;;;;;;;19.85;18.05;;;;;;;13.35;100.00;101056.97;5046848;28;19955;-83
2022/10/14 10:02:23;;;;;;;20.88;19.08;;;;;;;13.37;100.00;101055.88;5028355;28;20031;-83
2022/10/14 10:04:49;;;;;;;20.48;18.65;;;;;;;13.36;100.00;101059.44;5046454;28;20045;-83
2022/10/14 10:07:32;;;;;;;20.33;18.50;;;;;;;13.37;100.00;101057.66;5045030;28;20658;-82
2022/10/14 10:10:15;;;;;;;21.58;19.60;;;;;;;13.42;100.00;101058.03;5047092;28;20020;-82
2022/10/14 10:12:45;;;;;;;20.52;18.83;;;;;;;13.43;100.00;101041.47;5026992;28;20352;-82
2022/10/14 10:15:17;;;;;;;20.58;18.77;;;;;;;13.50;100.00;101053.00;5046053;28;20925;-82
2022/10/14 10:17:43;;;;;;;19.77;17.83;;;;;;;13.47;100.00;101040.22;5044057;28;20680;-83
2022/10/14 10:20:32;;;;;;;20.35;18.60;;;;;;;13.55;100.00;101048.19;5046481;28;20500;-82
2022/10/14 10:23:21;;;;;;;20.45;18.75;;;;;;;13.58;100.00;101045.28;5046506;28;20032;-82
2022/10/14 10:25:47;;;;;;;19.45;17.85;;;;;;;13.58;100.00;101039.25;5031111;28;20557;-82
2022/10/14 10:28:20;;;;;;;22.15;20.05;;;;;;;13.59;100.00;101044.34;5046647;28;20120;-82
2022/10/14 10:31:18;;;;;;;20.65;18.95;;;;;;;13.66;100.00;101040.22;5028928;28;20025;-82
2022/10/14 10:34:03;;;;;;;19.42;17.63;;;;;;;13.67;100.00;101036.63;5041459;28;20036;-83
2022/10/14 10:36:36;;;;;;;18.92;17.23;;;;;;;13.62;100.00;101033.63;5046347;28;20605;-83
2022/10/14 10:39:20;;;;;;;18.27;16.58;;;;;;;13.67;100.00;101028.81;5040963;28;20044;-82
2022/10/14 10:41:52;;;;;;;18.30;16.80;;;;;;;13.62;100.00;101023.19;5045425;28;20025;-83
2022/10/14 10:44:39;;;;;;;18.23;16.63;;;;;;;13.74;100.00;101042.13;5044857;28;20057;-82
2022/10/14 10:47:13;;;;;;;18.38;16.85;;;;;;;13.74;100.00;101029.06;5044588;28;20391;-82
2022/10/14 10:50:03;;;;;;;16.90;15.23;;;;;;;13.77;100.00;101014.00;5046148;28;20107;-83
2022/10/14 10:52:51;;;;;;;14.48;12.90;;;;;;;13.81;100.00;101020.53;5045714;28;20021;-83
2022/10/14 10:55:34;;;;;;;19.98;18.00;;;;;;;13.78;100.00;101023.44;5045910;28;20029;-83
2022/10/14 10:58:39;;;;;;;18.50;16.73;;;;;;;13.81;100.00;101019.72;5043459;28;20056;-83
2022/10/14 11:01:17;;;;;;;18.58;16.90;;;;;;;13.81;100.00;101023.16;5018352;28;20423;-83
2022/10/14 11:03:48;;;;;;;18.60;17.00;;;;;;;13.82;100.00;101014.38;5044970;28;20040;-83
2022/10/14 11:12:44;;;;;;;18.02;16.45;;;;;;;13.85;100.00;100997.63;5037738;28;20056;-84
2022/10/14 11:15:24;;;;;;;16.60;15.00;;;;;;;13.79;100.00;100988.59;5044149;28;20052;-81
2022/10/14 11:18:24;;;;;;;16.08;14.57;;;;;;;13.84;100.00;100990.78;5043049;28;20061;-81
2022/10/14 11:21:04;;;;;;;16.30;14.98;;;;;;;13.87;100.00;100992.25;5027583;28;20387;-81